Conejo, California
Current Conditions -  °F | °C
As of 9:53 AM on Tuesday 21 Oct 2014 (Local Time) from KHJO Reporting Station
Clear Clear  
Wind Chill: 61°   Ceiling: Unl
Heat Index: 61°   Visibility: 10mi
Dew Point: 48°   Wind: 13mph
Humidity: 62%   Direction: 350°N
Pressure: 30.09"   Gusts: NA
Location:  36.5405°N, 119.652°W
Report Text: KHJO 211653Z AUTO 35011KT 10SM CLR 16/09 A3009 RMK AO2 SLP191 T01610089
Loading
Personal Weather Stations






























Interactive Weather Map
Tropical Storm Tracking
New forecast layout! Learn more

10-Day Weather Forecast

Advertisements
Track Severe Weather on mobile